Time;durP1;ratioP1;P1;durP2;ratioP2;P2;SDS_P1;SDS_P2;PMS_P1;PMS_P2;Temp;Humidity;BMP_temperature;BMP_pressure;BME280_temperature;BME280_humidity;BME280_pressure;Samples;Min_cycle;Max_cycle;Signal;HPM_P1;HPM_P2
2024/04/25 00:02:05;;;;;;;;;;;;;;;;;;5334001;26;19973;-91
2024/04/25 00:04:32;;;;;;;;;;;;;;;;;;5335082;26;19925;-93
2024/04/25 00:06:58;;;;;;;;;;;;;;;;;;5326491;26;20038;-92
2024/04/25 00:09:24;;;;;;;;;;;;;;;;;;5361349;26;20654;-91
2024/04/25 00:11:50;;;;;;;;;;;;;;;;;;5353571;26;19930;-91
2024/04/25 00:14:18;;;;;;;;;;;;;;;;;;5324723;26;19933;-91
2024/04/25 00:16:44;;;;;;;;;;;;;;;;;;5319466;26;19925;-91
2024/04/25 00:19:10;;;;;;;;;;;;;;;;;;5340106;26;19926;-91
2024/04/25 00:21:36;;;;;;;;;;;;;;;;;;5340450;26;20924;-87
2024/04/25 00:24:02;;;;;;;;;;;;;;;;;;5316266;26;19926;-92
2024/04/25 00:26:28;;;;;;;;;;;;;;;;;;5312765;26;19930;-91
2024/04/25 00:28:54;;;;;;;;;;;;;;;;;;5332203;26;19926;-92
2024/04/25 00:31:20;;;;;;;;;;;;;;;;;;5336280;26;19926;-92
2024/04/25 00:33:46;;;;;;;;;;;;;;;;;;5318281;26;20460;-91
2024/04/25 00:36:12;;;;;;;;;;;;;;;;;;5340577;26;19953;-92
2024/04/25 00:38:38;;;;;;;;;;;;;;;;;;5330460;26;20028;-92
2024/04/25 00:41:04;;;;;;;;;;;;;;;;;;5318064;26;19926;-90
2024/04/25 00:43:30;;;;;;;;;;;;;;;;;;5325737;26;19926;-91
2024/04/25 00:45:56;;;;;;;;;;;;;;;;;;5343141;26;19933;-92
2024/04/25 00:48:22;;;;;;;;;;;;;;;;;;5314614;26;19925;-92
2024/04/25 00:50:48;;;;;;;;;;;;;;;;;;5321238;26;19932;-92
2024/04/25 00:53:14;;;;;;;;;;;;;;;;;;5336159;26;19929;-91
2024/04/25 00:55:40;;;;;;;;;;;;;;;;;;5317812;26;19926;-89
2024/04/25 00:58:06;;;;;;;;;;;;;;;;;;5338137;26;19932;-90
2024/04/25 01:00:32;;;;;;;;;;;;;;;;;;5342074;26;19933;-92
2024/04/25 01:02:58;;;;;;;;;;;;;;;;;;5316055;26;19926;-92
2024/04/25 01:05:24;;;;;;;;;;;;;;;;;;5317088;26;20606;-93
2024/04/25 01:07:50;;;;;;;;;;;;;;;;;;5343992;26;19926;-92
2024/04/25 01:10:16;;;;;;;;;;;;;;;;;;5315852;26;19986;-92
2024/04/25 01:12:42;;;;;;;;;;;;;;;;;;5322111;26;19925;-92
2024/04/25 01:15:08;;;;;;;;;;;;;;;;;;5316089;26;19957;-92
2024/04/25 01:17:34;;;;;;;;;;;;;;;;;;5320971;26;19979;-91
2024/04/25 01:20:00;;;;;;;;;;;;;;;;;;5344148;26;20470;-92
2024/04/25 01:22:26;;;;;;;;;;;;;;;;;;5310239;26;19982;-91
2024/04/25 01:24:52;;;;;;;;;;;;;;;;;;5320822;26;19956;-92
2024/04/25 01:27:18;;;;;;;;;;;;;;;;;;5319168;26;19934;-92
2024/04/25 01:29:44;;;;;;;;;;;;;;;;;;5335640;26;19933;-92
2024/04/25 01:32:10;;;;;;;;;;;;;;;;;;5334233;26;19933;-91
2024/04/25 01:34:36;;;;;;;;;;;;;;;;;;5339047;26;19930;-92
2024/04/25 01:37:02;;;;;;;;;;;;;;;;;;5344341;26;19924;-91
2024/04/25 01:39:28;;;;;;;;;;;;;;;;;;5346849;26;19982;-92
2024/04/25 01:41:54;;;;;;;;;;;;;;;;;;5362047;26;19940;-92
2024/04/25 01:44:20;;;;;;;;;;;;;;;;;;5338099;26;19926;-92
2024/04/25 01:46:47;;;;;;;;;;;;;;;;;;5336308;26;20198;-91
2024/04/25 01:49:14;;;;;;;;;;;;;;;;;;5321888;26;20664;-92
2024/04/25 01:51:40;;;;;;;;;;;;;;;;;;5327492;26;19926;-92
2024/04/25 01:54:06;;;;;;;;;;;;;;;;;;5319374;26;19925;-92
2024/04/25 01:56:32;;;;;;;;;;;;;;;;;;5310432;26;20011;-92
2024/04/25 01:58:58;;;;;;;;;;;;;;;;;;5313088;26;19925;-92
2024/04/25 02:01:24;;;;;;;;;;;;;;;;;;5322493;26;21237;-93
2024/04/25 02:03:50;;;;;;;;;;;;;;;;;;5339204;26;19926;-92
2024/04/25 02:06:16;;;;;;;;;;;;;;;;;;5340563;26;19932;-91
2024/04/25 02:08:44;;;;;;;;;;;;;;;;;;5319499;26;20474;-93
2024/04/25 02:11:10;;;;;;;;;;;;;;;;;;5353231;26;19934;-91
2024/04/25 02:13:36;;;;;;;;;;;;;;;;;;5329813;26;19925;-91
2024/04/25 02:16:03;;;;;;;;;;;;;;;;;;5353573;26;19937;-93
2024/04/25 02:18:29;;;;;;;;;;;;;;;;;;5323033;26;20488;-91
2024/04/25 02:26:24;;;;;;;;;;;;;;;;;;5338385;26;21810;-92
2024/04/25 02:28:50;;;;;;;;;;;;;;;;;;5348079;26;19934;-92
2024/04/25 02:31:19;;;;;;;;;;;;;;;;;;5331801;26;19933;-93
2024/04/25 02:33:45;;;;;;;;;;;;;;;;;;5330204;26;19941;-92
2024/04/25 02:36:11;;;;;;;;;;;;;;;;;;5327609;26;20234;-93
2024/04/25 02:38:37;;;;;;;;;;;;;;;;;;5332889;26;19972;-93
2024/04/25 02:41:03;;;;;;;;;;;;;;;;;;5327897;26;19940;-92
2024/04/25 02:43:29;;;;;;;;;;;;;;;;;;5350820;26;19933;-93
2024/04/25 02:45:55;;;;;;;;;;;;;;;;;;5333901;26;19922;-93
2024/04/25 02:48:21;;;;;;;;;;;;;;;;;;5360158;26;19917;-93
2024/04/25 02:50:47;;;;;;;;;;;;;;;;;;5360335;26;19933;-92
2024/04/25 02:53:13;;;;;;;;;;;;;;;;;;5345277;26;19926;-93
2024/04/25 02:55:39;;;;;;;;;;;;;;;;;;5344126;26;20268;-94
2024/04/25 02:58:05;;;;;;;;;;;;;;;;;;5348702;26;19940;-94
2024/04/25 03:00:31;;;;;;;;;;;;;;;;;;5355501;26;19941;-94
2024/04/25 03:02:56;;;;;;;;;;;;;;;;;;5362935;26;19933;-93
2024/04/25 03:05:23;;;;;;;;;;;;;;;;;;5328804;26;19955;-93
2024/04/25 03:07:50;;;;;;;;;;;;;;;;;;5347020;26;19946;-93
2024/04/25 03:10:16;;;;;;;;;;;;;;;;;;5359626;26;19933;-92
2024/04/25 03:12:42;;;;;;;;;;;;;;;;;;5364922;26;20338;-92
2024/04/25 03:15:09;;;;;;;;;;;;;;;;;;5354274;26;19941;-93
2024/04/25 03:17:35;;;;;;;;;;;;;;;;;;5332114;26;19926;-93
2024/04/25 03:20:01;;;;;;;;;;;;;;;;;;5329192;26;19985;-93
2024/04/25 03:22:27;;;;;;;;;;;;;;;;;;5349001;26;19926;-93
2024/04/25 03:24:53;;;;;;;;;;;;;;;;;;5328764;26;20408;-93
2024/04/25 03:27:19;;;;;;;;;;;;;;;;;;5350943;26;19933;-93
2024/04/25 03:29:45;;;;;;;;;;;;;;;;;;5353633;26;20006;-93
2024/04/25 03:32:10;;;;;;;;;;;;;;;;;;5345915;26;19987;-92
2024/04/25 03:34:37;;;;;;;;;;;;;;;;;;5327978;26;19926;-93
2024/04/25 03:37:03;;;;;;;;;;;;;;;;;;5325784;26;19982;-92
2024/04/25 03:39:30;;;;;;;;;;;;;;;;;;5325265;26;20471;-93
2024/04/25 03:41:56;;;;;;;;;;;;;;;;;;5325947;26;19925;-92
2024/04/25 03:44:22;;;;;;;;;;;;;;;;;;5345837;26;19941;-93
2024/04/25 03:46:48;;;;;;;;;;;;;;;;;;5340466;26;19926;-93
2024/04/25 03:49:14;;;;;;;;;;;;;;;;;;5345640;26;19926;-93
2024/04/25 03:51:40;;;;;;;;;;;;;;;;;;5314241;26;19937;-92
2024/04/25 03:54:06;;;;;;;;;;;;;;;;;;5339777;26;19926;-92
2024/04/25 03:56:32;;;;;;;;;;;;;;;;;;5317626;26;19933;-93
2024/04/25 03:58:58;;;;;;;;;;;;;;;;;;5327748;26;19942;-93
2024/04/25 04:01:24;;;;;;;;;;;;;;;;;;5332154;26;19933;-93
2024/04/25 04:03:50;;;;;;;;;;;;;;;;;;5357662;26;19981;-94
2024/04/25 04:06:16;;;;;;;;;;;;;;;;;;5358486;26;20711;-92
2024/04/25 04:08:42;;;;;;;;;;;;;;;;;;5328624;26;19926;-93
2024/04/25 04:11:08;;;;;;;;;;;;;;;;;;5323569;26;20421;-93
2024/04/25 04:13:35;;;;;;;;;;;;;;;;;;5326580;26;19946;-94
2024/04/25 04:16:01;;;;;;;;;;;;;;;;;;5325623;26;19934;-93
2024/04/25 04:18:27;;;;;;;;;;;;;;;;;;5326466;26;19964;-92
2024/04/25 04:20:53;;;;;;;;;;;;;;;;;;5327655;26;19926;-93
2024/04/25 04:23:19;;;;;;;;;;;;;;;;;;5331088;26;19926;-93
2024/04/25 04:25:45;;;;;;;;;;;;;;;;;;5336492;26;19926;-93
2024/04/25 04:28:11;;;;;;;;;;;;;;;;;;5330144;26;19937;-93
2024/04/25 04:30:37;;;;;;;;;;;;;;;;;;5349239;26;20352;-93
2024/04/25 04:33:03;;;;;;;;;;;;;;;;;;5355125;26;19999;-94
2024/04/25 04:35:29;;;;;;;;;;;;;;;;;;5313324;26;20357;-94
2024/04/25 04:37:55;;;;;;;;;;;;;;;;;;5346487;26;19925;-93
2024/04/25 04:40:21;;;;;;;;;;;;;;;;;;5323350;26;19934;-93
2024/04/25 04:42:47;;;;;;;;;;;;;;;;;;5324387;26;19954;-93
2024/04/25 04:45:13;;;;;;;;;;;;;;;;;;5320626;26;20288;-93
2024/04/25 04:47:40;;;;;;;;;;;;;;;;;;5328529;26;19925;-93
2024/04/25 04:50:06;;;;;;;;;;;;;;;;;;5339872;26;19926;-93
2024/04/25 04:52:32;;;;;;;;;;;;;;;;;;5352946;26;19932;-93
2024/04/25 04:54:58;;;;;;;;;;;;;;;;;;5333870;26;19918;-93
2024/04/25 04:57:25;;;;;;;;;;;;;;;;;;5365436;26;20008;-92
2024/04/25 04:59:51;;;;;;;;;;;;;;;;;;5368849;26;19988;-94
2024/04/25 05:02:17;;;;;;;;;;;;;;;;;;5321950;26;19926;-93
2024/04/25 05:04:43;;;;;;;;;;;;;;;;;;5319655;26;20530;-94
2024/04/25 05:07:09;;;;;;;;;;;;;;;;;;5321851;26;20347;-94
2024/04/25 05:09:35;;;;;;;;;;;;;;;;;;5359535;26;19925;-93
2024/04/25 05:12:01;;;;;;;;;;;;;;;;;;5323858;26;19926;-93
2024/04/25 05:14:27;;;;;;;;;;;;;;;;;;5321705;26;19938;-93
2024/04/25 05:16:53;;;;;;;;;;;;;;;;;;5351119;26;19918;-92
2024/04/25 05:19:18;;;;;;;;;;;;;;;;;;5355616;26;19925;-94
2024/04/25 05:21:46;;;;;;;;;;;;;;;;;;5314585;26;19925;-94
2024/04/25 05:24:12;;;;;;;;;;;;;;;;;;5315857;26;19941;-92
2024/04/25 05:26:38;;;;;;;;;;;;;;;;;;5318066;26;19937;-92
2024/04/25 05:29:06;;;;;;;;;;;;;;;;;;5320937;26;19941;-93
2024/04/25 05:31:32;;;;;;;;;;;;;;;;;;5312079;26;20686;-92
2024/04/25 05:33:58;;;;;;;;;;;;;;;;;;5310078;26;19972;-92
2024/04/25 05:36:24;;;;;;;;;;;;;;;;;;5308092;26;20032;-93
2024/04/25 05:38:51;;;;;;;;;;;;;;;;;;5336983;26;19926;-93
2024/04/25 05:41:17;;;;;;;;;;;;;;;;;;5312254;26;19933;-93
2024/04/25 05:43:43;;;;;;;;;;;;;;;;;;5330152;26;19955;-93
2024/04/25 05:46:09;;;;;;;;;;;;;;;;;;5336015;26;19937;-93
2024/04/25 05:48:35;;;;;;;;;;;;;;;;;;5312788;26;20474;-91
2024/04/25 05:51:01;;;;;;;;;;;;;;;;;;5349925;26;19933;-94
2024/04/25 05:53:27;;;;;;;;;;;;;;;;;;5340677;26;19926;-93
2024/04/25 05:55:53;;;;;;;;;;;;;;;;;;5316938;26;22218;-93
2024/04/25 05:58:19;;;;;;;;;;;;;;;;;;5338539;26;20040;-93
2024/04/25 06:00:45;;;;;;;;;;;;;;;;;;5313975;26;19926;-93
2024/04/25 06:03:11;;;;;;;;;;;;;;;;;;5317342;26;19946;-93
2024/04/25 06:05:37;;;;;;;;;;;;;;;;;;5320722;26;19933;-91
2024/04/25 06:08:03;;;;;;;;;;;;;;;;;;5327795;26;19941;-93
2024/04/25 06:10:29;;;;;;;;;;;;;;;;;;5331309;26;19929;-92
2024/04/25 06:12:55;;;;;;;;;;;;;;;;;;5335581;26;19934;-93
2024/04/25 06:15:21;;;;;;;;;;;;;;;;;;5329629;26;19934;-92
2024/04/25 06:17:47;;;;;;;;;;;;;;;;;;5343855;26;19933;-92
2024/04/25 06:20:16;;;;;;;;;;;;;;;;;;5338477;26;19926;-92
2024/04/25 06:22:42;;;;;;;;;;;;;;;;;;5326839;26;19930;-91
2024/04/25 06:25:08;;;;;;;;;;;;;;;;;;5355594;26;19996;-92
2024/04/25 06:27:34;;;;;;;;;;;;;;;;;;5350254;26;19925;-93
2024/04/25 06:30:00;;;;;;;;;;;;;;;;;;5336217;26;19926;-91
2024/04/25 06:32:26;;;;;;;;;;;;;;;;;;5329243;26;20805;-91
2024/04/25 06:34:52;;;;;;;;;;;;;;;;;;5325489;26;19934;-93
2024/04/25 06:37:19;;;;;;;;;;;;;;;;;;5325150;26;19926;-92
2024/04/25 06:39:45;;;;;;;;;;;;;;;;;;5320128;26;19925;-92
2024/04/25 06:42:11;;;;;;;;;;;;;;;;;;5314264;26;19932;-95
2024/04/25 06:44:39;;;;;;;;;;;;;;;;;;5325015;26;19937;-94
2024/04/25 06:47:05;;;;;;;;;;;;;;;;;;5329143;26;19941;-94
2024/04/25 06:49:31;;;;;;;;;;;;;;;;;;5353413;26;19949;-93
2024/04/25 06:51:57;;;;;;;;;;;;;;;;;;5335286;26;19926;-93
2024/04/25 06:54:23;;;;;;;;;;;;;;;;;;5356341;26;19931;-92
2024/04/25 06:56:51;;;;;;;;;;;;;;;;;;5356169;26;19933;-93
2024/04/25 06:59:19;;;;;;;;;;;;;;;;;;5354361;26;19926;-93
2024/04/25 07:01:46;;;;;;;;;;;;;;;;;;5329314;26;19926;-93
2024/04/25 07:04:12;;;;;;;;;;;;;;;;;;5336658;26;19917;-93
2024/04/25 07:06:38;;;;;;;;;;;;;;;;;;5351370;26;19926;-95
2024/04/25 07:09:06;;;;;;;;;;;;;;;;;;5333732;26;20346;-92
2024/04/25 07:11:32;;;;;;;;;;;;;;;;;;5361888;26;19953;-92
2024/04/25 07:13:58;;;;;;;;;;;;;;;;;;5338039;26;19973;-93
2024/04/25 07:16:24;;;;;;;;;;;;;;;;;;5326182;26;19966;-92
2024/04/25 07:18:50;;;;;;;;;;;;;;;;;;5360648;26;19933;-93
2024/04/25 07:21:16;;;;;;;;;;;;;;;;;;5349725;26;19933;-93
2024/04/25 07:23:42;;;;;;;;;;;;;;;;;;5337661;26;20232;-91
2024/04/25 07:26:08;;;;;;;;;;;;;;;;;;5353804;26;19933;-92
2024/04/25 07:28:35;;;;;;;;;;;;;;;;;;5336899;26;19933;-91
2024/04/25 07:31:02;;;;;;;;;;;;;;;;;;5341241;26;19925;-91
2024/04/25 07:33:28;;;;;;;;;;;;;;;;;;5329091;26;19940;-92
2024/04/25 07:35:54;;;;;;;;;;;;;;;;;;5350157;26;19925;-92
2024/04/25 07:38:20;;;;;;;;;;;;;;;;;;5350958;26;19932;-92
2024/04/25 07:40:46;;;;;;;;;;;;;;;;;;5339128;26;19926;-93
2024/04/25 07:43:12;;;;;;;;;;;;;;;;;;5333759;26;19926;-93
2024/04/25 07:45:38;;;;;;;;;;;;;;;;;;5327819;26;19926;-92
2024/04/25 07:48:04;;;;;;;;;;;;;;;;;;5332387;26;19989;-92
2024/04/25 07:50:30;;;;;;;;;;;;;;;;;;5335470;26;19990;-88
2024/04/25 07:52:56;;;;;;;;;;;;;;;;;;5332215;26;19937;-92
2024/04/25 07:55:22;;;;;;;;;;;;;;;;;;5331108;26;19933;-92
2024/04/25 07:57:48;;;;;;;;;;;;;;;;;;5334567;26;20121;-91
2024/04/25 08:00:15;;;;;;;;;;;;;;;;;;5350469;26;19933;-91
2024/04/25 08:02:41;;;;;;;;;;;;;;;;;;5354732;26;19926;-90
2024/04/25 08:05:07;;;;;;;;;;;;;;;;;;5335184;26;19925;-91
2024/04/25 08:07:32;;;;;;;;;;;;;;;;;;5354203;26;19925;-91
2024/04/25 08:09:58;;;;;;;;;;;;;;;;;;5352653;26;19947;-90
2024/04/25 08:12:25;;;;;;;;;;;;;;;;;;5339680;26;19934;-89
2024/04/25 08:14:51;;;;;;;;;;;;;;;;;;5345500;26;19963;-88
2024/04/25 08:17:17;;;;;;;;;;;;;;;;;;5338902;26;19933;-88
2024/04/25 08:19:43;;;;;;;;;;;;;;;;;;5362904;26;19964;-89
2024/04/25 08:22:09;;;;;;;;;;;;;;;;;;5335791;26;19934;-87
2024/04/25 08:24:35;;;;;;;;;;;;;;;;;;5335866;26;19925;-89
2024/04/25 08:27:01;;;;;;;;;;;;;;;;;;5334000;26;19925;-91
2024/04/25 08:29:27;;;;;;;;;;;;;;;;;;5347082;26;19953;-88
2024/04/25 08:31:54;;;;;;;;;;;;;;;;;;5355218;26;19926;-89
2024/04/25 08:34:20;;;;;;;;;;;;;;;;;;5355165;26;19925;-88
2024/04/25 08:36:46;;;;;;;;;;;;;;;;;;5326956;26;19998;-89
2024/04/25 08:39:12;;;;;;;;;;;;;;;;;;5322374;26;19926;-89
2024/04/25 08:41:43;;;;;;;;;;;;;;;;;;5354336;26;20446;-88
2024/04/25 08:44:09;;;;;;;;;;;;;;;;;;5339259;26;19970;-89
2024/04/25 08:46:35;;;;;;;;;;;;;;;;;;5344459;26;19932;-90
2024/04/25 08:49:01;;;;;;;;;;;;;;;;;;5316688;26;19938;-89
2024/04/25 08:51:27;;;;;;;;;;;;;;;;;;5316849;26;19999;-88
2024/04/25 08:53:53;;;;;;;;;;;;;;;;;;5324223;26;19926;-89
2024/04/25 08:56:19;;;;;;;;;;;;;;;;;;5319234;26;19999;-87
2024/04/25 08:58:47;;;;;;;;;;;;;;;;;;5338751;26;19926;-89
2024/04/25 09:01:15;;;;;;;;;;;;;;;;;;5339826;26;20469;-89
2024/04/25 09:03:42;;;;;;;;;;;;;;;;;;5322835;26;19926;-88
2024/04/25 09:06:11;;;;;;;;;;;;;;;;;;5316162;26;19929;-88
2024/04/25 09:08:37;;;;;;;;;;;;;;;;;;5307273;26;19931;-89
2024/04/25 09:11:04;;;;;;;;;;;;;;;;;;5320822;26;19934;-90
2024/04/25 09:13:31;;;;;;;;;;;;;;;;;;5333201;26;20028;-88
2024/04/25 09:15:57;;;;;;;;;;;;;;;;;;5318776;26;19995;-89
2024/04/25 09:18:24;;;;;;;;;;;;;;;;;;5307636;26;20383;-88
2024/04/25 09:20:50;;;;;;;;;;;;;;;;;;5336638;26;19969;-89
2024/04/25 09:23:17;;;;;;;;;;;;;;;;;;5313332;26;19926;-88
2024/04/25 09:25:43;;;;;;;;;;;;;;;;;;5316873;26;19925;-90
2024/04/25 09:28:10;;;;;;;;;;;;;;;;;;5332442;26;20003;-89
2024/04/25 09:30:37;;;;;;;;;;;;;;;;;;5341409;26;20395;-88
2024/04/25 09:33:07;;;;;;;;;;;;;;;;;;5317685;26;19925;-88
2024/04/25 09:35:32;;;;;;;;;;;;;;;;;;5313547;26;19925;-87
2024/04/25 09:37:58;;;;;;;;;;;;;;;;;;5338812;26;19953;-88
2024/04/25 09:40:24;;;;;;;;;;;;;;;;;;5298012;26;22336;-89
2024/04/25 09:42:50;;;;;;;;;;;;;;;;;;5311176;26;19934;-89
2024/04/25 09:45:17;;;;;;;;;;;;;;;;;;5310787;26;20341;-88
2024/04/25 09:47:44;;;;;;;;;;;;;;;;;;5313891;26;20000;-88
2024/04/25 09:50:11;;;;;;;;;;;;;;;;;;5327036;26;19940;-88
2024/04/25 09:52:37;;;;;;;;;;;;;;;;;;5311041;26;19934;-88
2024/04/25 09:55:04;;;;;;;;;;;;;;;;;;5338403;26;19926;-87
2024/04/25 09:57:30;;;;;;;;;;;;;;;;;;5315670;26;19940;-87
2024/04/25 09:59:56;;;;;;;;;;;;;;;;;;5321044;26;19926;-86
2024/04/25 10:02:22;;;;;;;;;;;;;;;;;;5315158;26;20322;-88
2024/04/25 10:04:48;;;;;;;;;;;;;;;;;;5325738;26;19926;-89
2024/04/25 10:07:14;;;;;;;;;;;;;;;;;;5314552;26;20403;-89
2024/04/25 10:09:41;;;;;;;;;;;;;;;;;;5334609;26;19926;-88
2024/04/25 10:12:07;;;;;;;;;;;;;;;;;;5328758;26;19956;-88
2024/04/25 10:14:33;;;;;;;;;;;;;;;;;;5330898;26;19927;-89
2024/04/25 10:16:59;;;;;;;;;;;;;;;;;;5323973;26;19933;-88
2024/04/25 10:19:25;;;;;;;;;;;;;;;;;;5331698;26;21288;-88
2024/04/25 10:21:51;;;;;;;;;;;;;;;;;;5323673;26;19932;-89
2024/04/25 10:24:17;;;;;;;;;;;;;;;;;;5309671;26;19926;-89
2024/04/25 10:26:43;;;;;;;;;;;;;;;;;;5316533;26;19992;-89
2024/04/25 10:29:09;;;;;;;;;;;;;;;;;;5330212;26;19933;-88
2024/04/25 10:31:35;;;;;;;;;;;;;;;;;;5318185;26;19933;-90
2024/04/25 10:34:01;;;;;;;;;;;;;;;;;;5338109;26;19941;-87
2024/04/25 10:36:27;;;;;;;;;;;;;;;;;;5336446;26;19937;-88
2024/04/25 10:38:53;;;;;;;;;;;;;;;;;;5327657;26;19940;-87
2024/04/25 10:41:18;;;;;;;;;;;;;;;;;;5311201;26;20633;-88
2024/04/25 10:43:48;;;;;;;;;;;;;;;;;;5316825;26;20342;-87
2024/04/25 10:46:14;;;;;;;;;;;;;;;;;;5336580;26;19932;-89
2024/04/25 10:48:39;;;;;;;;;;;;;;;;;;5315358;26;19930;-89
2024/04/25 10:51:05;;;;;;;;;;;;;;;;;;5332729;26;19932;-87
2024/04/25 10:53:31;;;;;;;;;;;;;;;;;;5318576;26;19933;-88
2024/04/25 10:55:57;;;;;;;;;;;;;;;;;;5338917;26;21072;-90
2024/04/25 10:58:23;;;;;;;;;;;;;;;;;;5329072;26;19967;-89
2024/04/25 11:00:49;;;;;;;;;;;;;;;;;;5318290;26;19933;-90
2024/04/25 11:03:15;;;;;;;;;;;;;;;;;;5314446;26;20776;-90
2024/04/25 11:05:41;;;;;;;;;;;;;;;;;;5338309;26;19926;-90
2024/04/25 11:08:07;;;;;;;;;;;;;;;;;;5334693;26;19926;-88
2024/04/25 11:10:34;;;;;;;;;;;;;;;;;;5310819;26;19933;-89
2024/04/25 11:13:00;;;;;;;;;;;;;;;;;;5318360;26;19938;-89
2024/04/25 11:15:31;;;;;;;;;;;;;;;;;;5338007;26;19935;-88
2024/04/25 11:18:03;;;;;;;;;;;;;;;;;;5337270;26;19972;-89
2024/04/25 11:20:29;;;;;;;;;;;;;;;;;;5333874;26;19926;-89
2024/04/25 11:22:56;;;;;;;;;;;;;;;;;;5319757;26;19982;-88
2024/04/25 11:25:22;;;;;;;;;;;;;;;;;;5315087;26;19956;-90
2024/04/25 11:27:50;;;;;;;;;;;;;;;;;;5339866;26;20115;-89
2024/04/25 11:30:16;;;;;;;;;;;;;;;;;;5337448;26;19934;-90
2024/04/25 11:32:42;;;;;;;;;;;;;;;;;;5318402;26;19945;-89
2024/04/25 11:35:08;;;;;;;;;;;;;;;;;;5320411;26;19934;-88
2024/04/25 11:37:34;;;;;;;;;;;;;;;;;;5324176;26;20727;-88
2024/04/25 11:39:59;;;;;;;;;;;;;;;;;;5367282;26;19930;-88
2024/04/25 11:42:25;;;;;;;;;;;;;;;;;;5334640;26;19966;-87
2024/04/25 11:44:51;;;;;;;;;;;;;;;;;;5342202;26;19973;-88
2024/04/25 11:47:17;;;;;;;;;;;;;;;;;;5325843;26;19925;-88
2024/04/25 11:49:43;;;;;;;;;;;;;;;;;;5332264;26;20095;-89
2024/04/25 11:52:12;;;;;;;;;;;;;;;;;;5352132;26;19940;-88
2024/04/25 11:54:38;;;;;;;;;;;;;;;;;;5331141;26;19925;-87
2024/04/25 11:57:03;;;;;;;;;;;;;;;;;;5333072;26;19926;-88
2024/04/25 11:59:31;;;;;;;;;;;;;;;;;;5328357;26;19925;-86
2024/04/25 12:01:58;;;;;;;;;;;;;;;;;;5332636;26;19932;-89
2024/04/25 12:04:25;;;;;;;;;;;;;;;;;;5342188;26;21870;-88
2024/04/25 12:06:51;;;;;;;;;;;;;;;;;;5329296;26;21264;-88
2024/04/25 12:09:19;;;;;;;;;;;;;;;;;;5332399;26;19926;-90
2024/04/25 12:11:46;;;;;;;;;;;;;;;;;;5351556;26;21401;-89
2024/04/25 12:14:12;;;;;;;;;;;;;;;;;;5323897;26;19926;-87
2024/04/25 12:16:38;;;;;;;;;;;;;;;;;;5315254;26;19966;-88
2024/04/25 12:19:05;;;;;;;;;;;;;;;;;;5338493;26;19926;-90
2024/04/25 12:21:32;;;;;;;;;;;;;;;;;;5326076;26;19937;-88
2024/04/25 12:23:58;;;;;;;;;;;;;;;;;;5322029;26;19934;-88
2024/04/25 12:26:24;;;;;;;;;;;;;;;;;;5344781;26;19945;-88
2024/04/25 12:28:50;;;;;;;;;;;;;;;;;;5316535;26;19970;-88
2024/04/25 12:31:16;;;;;;;;;;;;;;;;;;5314417;26;19934;-88
2024/04/25 12:33:42;;;;;;;;;;;;;;;;;;5320001;26;20400;-88
2024/04/25 12:36:08;;;;;;;;;;;;;;;;;;5337187;26;19972;-88
2024/04/25 12:38:34;;;;;;;;;;;;;;;;;;5342338;26;19941;-88
2024/04/25 12:41:00;;;;;;;;;;;;;;;;;;5348390;26;19933;-88
2024/04/25 12:43:27;;;;;;;;;;;;;;;;;;5338377;26;20376;-89
2024/04/25 12:45:53;;;;;;;;;;;;;;;;;;5317211;26;19988;-87
2024/04/25 12:48:21;;;;;;;;;;;;;;;;;;5337256;26;19933;-88
2024/04/25 12:50:47;;;;;;;;;;;;;;;;;;5314358;26;19933;-89
2024/04/25 12:53:15;;;;;;;;;;;;;;;;;;5341502;26;21847;-91
2024/04/25 12:55:41;;;;;;;;;;;;;;;;;;5341533;26;19925;-88
2024/04/25 12:58:07;;;;;;;;;;;;;;;;;;5316302;26;19926;-88
2024/04/25 13:00:33;;;;;;;;;;;;;;;;;;5319786;26;20276;-91
2024/04/25 13:02:59;;;;;;;;;;;;;;;;;;5323075;26;19991;-90
2024/04/25 13:05:25;;;;;;;;;;;;;;;;;;5312816;26;19944;-88
2024/04/25 13:07:51;;;;;;;;;;;;;;;;;;5319097;26;20051;-90
2024/04/25 13:10:18;;;;;;;;;;;;;;;;;;5338324;26;19995;-89
2024/04/25 13:12:43;;;;;;;;;;;;;;;;;;5340974;26;19934;-91
2024/04/25 13:15:11;;;;;;;;;;;;;;;;;;5322199;26;19926;-92
2024/04/25 13:17:37;;;;;;;;;;;;;;;;;;5321774;26;19926;-91
2024/04/25 13:20:03;;;;;;;;;;;;;;;;;;5325443;26;19925;-92
2024/04/25 13:22:29;;;;;;;;;;;;;;;;;;5350821;26;19950;-91
2024/04/25 13:24:55;;;;;;;;;;;;;;;;;;5318979;26;19926;-91
2024/04/25 13:27:22;;;;;;;;;;;;;;;;;;5333526;26;19937;-91
2024/04/25 13:29:49;;;;;;;;;;;;;;;;;;5315675;26;19925;-88
2024/04/25 13:32:15;;;;;;;;;;;;;;;;;;5311380;26;20402;-79
2024/04/25 13:34:41;;;;;;;;;;;;;;;;;;5300745;26;20529;-81
2024/04/25 13:37:07;;;;;;;;;;;;;;;;;;5294203;26;19933;-82
2024/04/25 13:39:33;;;;;;;;;;;;;;;;;;5293111;26;19984;-82
2024/04/25 13:41:59;;;;;;;;;;;;;;;;;;5294441;26;19926;-87
2024/04/25 13:44:25;;;;;;;;;;;;;;;;;;5306630;26;19945;-87
2024/04/25 13:46:51;;;;;;;;;;;;;;;;;;5301410;26;20408;-89
2024/04/25 13:49:18;;;;;;;;;;;;;;;;;;5327476;26;19967;-89
2024/04/25 13:51:44;;;;;;;;;;;;;;;;;;5302401;26;20395;-88
2024/04/25 13:54:10;;;;;;;;;;;;;;;;;;5301760;26;19933;-88
2024/04/25 13:56:36;;;;;;;;;;;;;;;;;;5306370;26;20453;-89
2024/04/25 13:59:02;;;;;;;;;;;;;;;;;;5297692;26;19936;-91
2024/04/25 14:01:28;;;;;;;;;;;;;;;;;;5335854;26;19933;-90
2024/04/25 14:03:54;;;;;;;;;;;;;;;;;;5310355;26;19941;-88
2024/04/25 14:06:20;;;;;;;;;;;;;;;;;;5332209;26;19925;-89
2024/04/25 14:08:46;;;;;;;;;;;;;;;;;;5313149;26;20429;-90
2024/04/25 14:11:12;;;;;;;;;;;;;;;;;;5310382;26;19926;-90
2024/04/25 14:13:39;;;;;;;;;;;;;;;;;;5337155;26;19933;-90
2024/04/25 14:16:05;;;;;;;;;;;;;;;;;;5334547;26;19925;-89
2024/04/25 14:18:30;;;;;;;;;;;;;;;;;;5301912;26;19933;-89
2024/04/25 14:20:58;;;;;;;;;;;;;;;;;;5331263;26;19945;-88
2024/04/25 14:23:24;;;;;;;;;;;;;;;;;;5311874;26;19934;-89
2024/04/25 14:28:43;;;;;;;;;;;;;;;;;;5326318;26;19929;-88
2024/04/25 14:31:09;;;;;;;;;;;;;;;;;;5309168;26;19978;-89
2024/04/25 14:33:35;;;;;;;;;;;;;;;;;;5309362;26;19925;-88
2024/04/25 14:36:01;;;;;;;;;;;;;;;;;;5332851;26;20008;-88
2024/04/25 14:38:27;;;;;;;;;;;;;;;;;;5336384;26;21666;-88
2024/04/25 14:40:55;;;;;;;;;;;;;;;;;;5318139;26;19926;-89
2024/04/25 14:43:21;;;;;;;;;;;;;;;;;;5312910;26;19925;-88
2024/04/25 14:45:49;;;;;;;;;;;;;;;;;;5338729;26;19934;-89
2024/04/25 14:48:15;;;;;;;;;;;;;;;;;;5320475;26;20003;-89
2024/04/25 14:50:41;;;;;;;;;;;;;;;;;;5348098;26;20454;-89
2024/04/25 14:53:08;;;;;;;;;;;;;;;;;;5346021;26;19925;-90
2024/04/25 14:55:37;;;;;;;;;;;;;;;;;;5347094;26;19925;-90
2024/04/25 14:58:03;;;;;;;;;;;;;;;;;;5323404;26;20232;-90
2024/04/25 15:00:29;;;;;;;;;;;;;;;;;;5348816;26;19926;-92
2024/04/25 15:02:55;;;;;;;;;;;;;;;;;;5348334;26;19925;-90
2024/04/25 15:05:21;;;;;;;;;;;;;;;;;;5341660;26;20086;-89
2024/04/25 15:07:47;;;;;;;;;;;;;;;;;;5319325;26;19974;-90
2024/04/25 15:10:13;;;;;;;;;;;;;;;;;;5355587;26;19955;-88
2024/04/25 15:12:41;;;;;;;;;;;;;;;;;;5334959;26;19933;-89
2024/04/25 15:15:08;;;;;;;;;;;;;;;;;;5357080;26;19946;-88
2024/04/25 15:17:34;;;;;;;;;;;;;;;;;;5339539;26;19932;-87
2024/04/25 15:20:00;;;;;;;;;;;;;;;;;;5315737;26;19973;-89
2024/04/25 15:22:26;;;;;;;;;;;;;;;;;;5313432;26;20044;-90
2024/04/25 15:24:55;;;;;;;;;;;;;;;;;;5319592;26;19926;-90
2024/04/25 15:27:23;;;;;;;;;;;;;;;;;;5320781;26;19940;-89
2024/04/25 15:29:50;;;;;;;;;;;;;;;;;;5319914;26;20464;-88
2024/04/25 15:32:16;;;;;;;;;;;;;;;;;;5339845;26;19941;-90
2024/04/25 15:34:43;;;;;;;;;;;;;;;;;;5344980;26;19933;-90
2024/04/25 15:37:09;;;;;;;;;;;;;;;;;;5335521;26;19934;-89
2024/04/25 15:39:35;;;;;;;;;;;;;;;;;;5317765;26;20729;-90
2024/04/25 15:42:01;;;;;;;;;;;;;;;;;;5316592;26;19954;-91
2024/04/25 15:44:29;;;;;;;;;;;;;;;;;;5337802;26;19974;-89
2024/04/25 15:46:55;;;;;;;;;;;;;;;;;;5320370;26;20007;-89
2024/04/25 15:49:21;;;;;;;;;;;;;;;;;;5313915;26;19955;-90
2024/04/25 15:51:47;;;;;;;;;;;;;;;;;;5310917;26;19941;-89
2024/04/25 15:54:15;;;;;;;;;;;;;;;;;;5306411;26;19933;-89
2024/04/25 15:56:48;;;;;;;;;;;;;;;;;;5321976;26;19926;-90
2024/04/25 15:59:14;;;;;;;;;;;;;;;;;;5322114;26;19973;-88
2024/04/25 16:01:40;;;;;;;;;;;;;;;;;;5341686;26;19941;-87
2024/04/25 16:04:06;;;;;;;;;;;;;;;;;;5324270;26;19933;-90
2024/04/25 16:06:32;;;;;;;;;;;;;;;;;;5347886;26;20607;-90
2024/04/25 16:08:59;;;;;;;;;;;;;;;;;;5336962;26;20066;-89
2024/04/25 16:11:25;;;;;;;;;;;;;;;;;;5316095;26;19944;-89
2024/04/25 16:13:51;;;;;;;;;;;;;;;;;;5319897;26;20463;-89
2024/04/25 16:16:17;;;;;;;;;;;;;;;;;;5336547;26;19957;-87
2024/04/25 16:18:43;;;;;;;;;;;;;;;;;;5312936;26;19959;-89
2024/04/25 16:21:09;;;;;;;;;;;;;;;;;;5306473;26;20253;-87
2024/04/25 16:23:35;;;;;;;;;;;;;;;;;;5314333;26;20260;-86
2024/04/25 16:26:01;;;;;;;;;;;;;;;;;;5316403;26;19933;-87
2024/04/25 16:28:27;;;;;;;;;;;;;;;;;;5306757;26;19933;-86
2024/04/25 16:30:53;;;;;;;;;;;;;;;;;;5315961;26;19970;-86
2024/04/25 16:33:19;;;;;;;;;;;;;;;;;;5314849;26;19937;-87
2024/04/25 16:35:46;;;;;;;;;;;;;;;;;;5334094;26;19934;-88
2024/04/25 16:38:12;;;;;;;;;;;;;;;;;;5309363;26;19934;-87
2024/04/25 16:40:39;;;;;;;;;;;;;;;;;;5309895;26;20344;-87
2024/04/25 16:43:05;;;;;;;;;;;;;;;;;;5334503;26;19941;-85
2024/04/25 16:45:32;;;;;;;;;;;;;;;;;;5307877;26;19945;-86
2024/04/25 16:47:59;;;;;;;;;;;;;;;;;;5308269;26;20539;-86